Time,TemperatureF,DewpointF,PressureIn,WindDirection,WindDirectionDegrees,WindSpeedMPH,WindSpeedGustMPH,Humidity,HourlyPrecipIn,Conditions,Clouds,dailyrainin,SoftwareType,DateUTC
2013-04-13 00:23:00,56.0,47.0,29.90,North,-999,0.0,0.0,72,0.00,,,-99.99,,2013-04-13 07:23:00,
2013-04-13 00:34:00,56.0,47.0,29.90,North,-999,0.0,0.0,72,0.00,,,-99.99,,2013-04-13 07:34:00,
2013-04-13 00:44:00,56.0,47.0,29.90,North,-999,0.0,0.0,72,0.00,,,-99.99,,2013-04-13 07:44:00,
2013-04-13 01:24:00,55.0,46.0,29.90,North,-999,0.0,0.0,71,0.00,,,-99.99,,2013-04-13 08:24:00,
2013-04-13 01:34:00,55.0,46.0,29.90,North,-999,0.0,0.0,71,0.00,,,-99.99,,2013-04-13 08:34:00,
2013-04-13 01:44:00,55.0,46.0,29.90,North,-999,0.0,0.0,71,0.00,,,-99.99,,2013-04-13 08:44:00,
2013-04-13 02:24:00,53.0,46.0,29.90,North,-999,0.0,0.0,77,0.00,,,-99.99,,2013-04-13 09:24:00,
2013-04-13 02:35:00,53.0,46.0,29.90,North,-999,0.0,0.0,77,0.00,,,-99.99,,2013-04-13 09:35:00,
2013-04-13 03:24:00,53.0,46.0,29.88,North,-999,0.0,0.0,78,0.00,,,-99.99,,2013-04-13 10:24:00,
2013-04-13 03:35:00,53.0,46.0,29.88,North,-999,0.0,0.0,78,0.00,,,-99.99,,2013-04-13 10:35:00,
2013-04-13 03:45:00,53.0,46.0,29.88,North,-999,0.0,0.0,78,0.00,,,-99.99,,2013-04-13 10:45:00,
2013-04-13 04:23:00,50.0,43.0,29.87,North,-999,0.0,0.0,78,0.00,,,-99.99,,2013-04-13 11:23:00,
2013-04-13 04:33:00,50.0,43.0,29.87,North,-999,0.0,0.0,78,0.00,,,-99.99,,2013-04-13 11:33:00,
2013-04-13 04:44:00,50.0,43.0,29.87,North,-999,0.0,0.0,78,0.00,,,-99.99,,2013-04-13 11:44:00,
2013-04-13 05:23:00,49.0,43.0,29.87,North,-999,0.0,0.0,80,0.00,,,-99.99,,2013-04-13 12:23:00,
2013-04-13 05:34:00,49.0,43.0,29.87,North,-999,0.0,0.0,80,0.00,,,-99.99,,2013-04-13 12:34:00,
2013-04-13 05:45:00,49.0,43.0,29.87,North,-999,0.0,0.0,80,0.00,,,-99.99,,2013-04-13 12:45:00,
2013-04-13 06:24:00,47.0,40.0,29.87,North,-999,0.0,0.0,77,0.00,,,-99.99,,2013-04-13 13:24:00,
2013-04-13 06:33:00,47.0,40.0,29.87,North,-999,0.0,0.0,77,0.00,,,-99.99,,2013-04-13 13:33:00,
2013-04-13 06:45:00,47.0,40.0,29.87,North,-999,0.0,0.0,77,0.00,,,-99.99,,2013-04-13 13:45:00,
2013-04-13 07:23:00,46.0,40.0,29.87,North,-999,0.0,0.0,78,0.00,,,-99.99,,2013-04-13 14:23:00,
2013-04-13 07:35:00,46.0,40.0,29.87,North,-999,0.0,0.0,78,0.00,,,-99.99,,2013-04-13 14:35:00,
2013-04-13 07:45:00,46.0,40.0,29.87,North,-999,0.0,0.0,78,0.00,,,-99.99,,2013-04-13 14:45:00,
2013-04-13 08:26:00,51.0,44.0,29.87,North,-999,0.0,0.0,76,0.00,,,-99.99,,2013-04-13 15:26:00,
2013-04-13 08:34:00,51.0,44.0,29.87,North,-999,0.0,0.0,76,0.00,,,-99.99,,2013-04-13 15:34:00,
2013-04-13 08:43:00,51.0,44.0,29.87,North,-999,0.0,0.0,76,0.00,,,-99.99,,2013-04-13 15:43:00,
2013-04-13 09:24:00,54.0,45.0,29.88,North,0,0.0,6.0,72,0.00,,,-99.99,,2013-04-13 16:24:00,
2013-04-13 09:44:00,54.0,45.0,29.88,North,0,0.0,6.0,72,0.00,,,-99.99,,2013-04-13 16:44:00,
2013-04-13 10:24:00,57.0,49.0,29.89,North,0,0.0,6.0,75,0.00,,,-99.99,,2013-04-13 17:24:00,
2013-04-13 10:35:00,57.0,49.0,29.89,North,0,0.0,6.0,75,0.00,,,-99.99,,2013-04-13 17:35:00,
2013-04-13 10:43:00,57.0,49.0,29.89,North,0,0.0,6.0,75,0.00,,,-99.99,,2013-04-13 17:43:00,
2013-04-13 11:24:00,61.0,48.0,29.89,North,0,0.0,7.0,63,0.00,,,-99.99,,2013-04-13 18:24:00,
2013-04-13 11:32:00,61.0,48.0,29.89,North,0,0.0,7.0,63,0.00,,,-99.99,,2013-04-13 18:32:00,
2013-04-13 11:42:00,61.0,48.0,29.89,North,0,0.0,7.0,63,0.00,,,-99.99,,2013-04-13 18:42:00,
2013-04-13 12:22:00,68.0,48.0,29.89,North,0,0.0,9.0,49,0.00,,,-99.99,,2013-04-13 19:22:00,
2013-04-13 12:32:00,68.0,48.0,29.89,North,0,0.0,9.0,49,0.00,,,-99.99,,2013-04-13 19:32:00,
2013-04-13 12:42:00,68.0,48.0,29.89,North,0,0.0,9.0,49,0.00,,,-99.99,,2013-04-13 19:42:00,
2013-04-13 13:22:00,71.0,47.0,29.88,WSW,240,2.0,10.0,43,0.00,,,-99.99,,2013-04-13 20:22:00,
2013-04-13 13:32:00,71.0,47.0,29.88,WSW,240,2.0,10.0,43,0.00,,,-99.99,,2013-04-13 20:32:00,
2013-04-13 13:42:00,71.0,47.0,29.88,WSW,240,2.0,10.0,43,0.00,,,-99.99,,2013-04-13 20:42:00,
2013-04-13 14:22:00,75.0,44.0,29.86,North,0,0.0,10.0,33,0.00,,,-99.99,,2013-04-13 21:22:00,
2013-04-13 14:32:00,75.0,44.0,29.86,North,0,0.0,10.0,33,0.00,,,-99.99,,2013-04-13 21:32:00,
2013-04-13 14:43:00,75.0,44.0,29.86,North,0,0.0,10.0,33,0.00,,,-99.99,,2013-04-13 21:43:00,
2013-04-13 15:22:00,75.0,41.0,29.85,WSW,240,5.0,20.0,30,0.00,,,-99.99,,2013-04-13 22:22:00,
2013-04-13 15:33:00,75.0,41.0,29.85,WSW,240,5.0,20.0,30,0.00,,,-99.99,,2013-04-13 22:33:00,
2013-04-13 15:42:00,75.0,41.0,29.85,WSW,240,5.0,20.0,30,0.00,,,-99.99,,2013-04-13 22:42:00,
2013-04-13 16:22:00,75.0,43.0,29.84,SW,230,11.0,13.0,32,0.00,,,-99.99,,2013-04-13 23:22:00,
2013-04-13 16:32:00,75.0,43.0,29.84,SW,230,11.0,13.0,32,0.00,,,-99.99,,2013-04-13 23:32:00,
2013-04-13 16:41:00,75.0,43.0,29.84,SW,230,11.0,13.0,32,0.00,,,-99.99,,2013-04-13 23:41:00,
2013-04-13 17:22:00,75.0,44.0,29.83,North,0,0.0,12.0,33,0.00,,,-99.99,,2013-04-14 00:22:00,
2013-04-13 17:32:00,75.0,44.0,29.83,North,0,0.0,12.0,33,0.00,,,-99.99,,2013-04-14 00:32:00,
2013-04-13 17:42:00,75.0,44.0,29.83,North,0,0.0,12.0,33,0.00,,,-99.99,,2013-04-14 00:42:00,
2013-04-13 18:22:00,72.0,44.0,29.81,WSW,250,2.0,13.0,37,0.00,,,-99.99,,2013-04-14 01:22:00,
2013-04-13 18:32:00,72.0,44.0,29.81,WSW,250,2.0,13.0,37,0.00,,,-99.99,,2013-04-14 01:32:00,
2013-04-13 18:42:00,72.0,44.0,29.81,WSW,250,2.0,13.0,37,0.00,,,-99.99,,2013-04-14 01:42:00,
2013-04-13 19:22:00,68.0,42.0,29.83,North,0,0.0,1.0,39,0.00,,,-99.99,,2013-04-14 02:22:00,
2013-04-13 19:32:00,68.0,42.0,29.83,North,0,0.0,1.0,39,0.00,,,-99.99,,2013-04-14 02:32:00,
2013-04-13 19:42:00,68.0,42.0,29.83,North,0,0.0,1.0,39,0.00,,,-99.99,,2013-04-14 02:42:00,
2013-04-13 20:22:00,63.0,46.0,29.83,North,-999,0.0,0.0,54,0.00,,,-99.99,,2013-04-14 03:22:00,
2013-04-13 20:33:00,63.0,46.0,29.83,North,-999,0.0,0.0,54,0.00,,,-99.99,,2013-04-14 03:33:00,
2013-04-13 20:42:00,63.0,46.0,29.83,North,-999,0.0,0.0,54,0.00,,,-99.99,,2013-04-14 03:42:00,
2013-04-13 21:23:00,57.0,47.0,29.85,North,-999,0.0,0.0,69,0.00,,,-99.99,,2013-04-14 04:23:00,
2013-04-13 21:32:00,57.0,47.0,29.85,North,-999,0.0,0.0,69,0.00,,,-99.99,,2013-04-14 04:32:00,
2013-04-13 21:42:00,57.0,47.0,29.85,North,-999,0.0,0.0,69,0.00,,,-99.99,,2013-04-14 04:42:00,
2013-04-13 22:22:00,53.0,46.0,29.87,North,-999,0.0,0.0,78,0.00,,,-99.99,,2013-04-14 05:22:00,
2013-04-13 22:32:00,53.0,46.0,29.87,North,-999,0.0,0.0,78,0.00,,,-99.99,,2013-04-14 05:32:00,
2013-04-13 22:42:00,53.0,46.0,29.87,North,-999,0.0,0.0,78,0.00,,,-99.99,,2013-04-14 05:42:00,
2013-04-13 23:22:00,53.0,47.0,29.89,North,-999,0.0,0.0,81,0.00,,,-99.99,,2013-04-14 06:22:00,
2013-04-13 23:32:00,53.0,47.0,29.89,North,-999,0.0,0.0,81,0.00,,,-99.99,,2013-04-14 06:32:00,
2013-04-13 23:42:00,53.0,47.0,29.89,North,-999,0.0,0.0,81,0.00,,,-99.99,,2013-04-14 06:42:00,